sensor_id;sensor_type;location;lat;lon;timestamp;pressure;altitude;pressure_sealevel;temperature;humidity
49461;BME280;35355;49.198;-0.368;2023-03-05T00:00:34;101942.53;;;7.14;68.06
49461;BME280;35355;49.198;-0.368;2023-03-05T00:03:00;101934.59;;;7.12;68.42
49461;BME280;35355;49.198;-0.368;2023-03-05T00:05:25;101934.00;;;7.10;68.47
49461;BME280;35355;49.198;-0.368;2023-03-05T00:07:50;101932.53;;;7.08;68.18
49461;BME280;35355;49.198;-0.368;2023-03-05T00:10:16;101930.84;;;7.07;68.62
49461;BME280;35355;49.198;-0.368;2023-03-05T00:12:41;101934.19;;;7.09;68.25
49461;BME280;35355;49.198;-0.368;2023-03-05T00:15:07;101933.34;;;7.08;68.03
49461;BME280;35355;49.198;-0.368;2023-03-05T00:17:33;101927.91;;;7.08;68.13
49461;BME280;35355;49.198;-0.368;2023-03-05T00:19:58;101929.81;;;7.08;68.59
49461;BME280;35355;49.198;-0.368;2023-03-05T00:22:24;101927.31;;;7.06;68.62
49461;BME280;35355;49.198;-0.368;2023-03-05T00:24:50;101921.88;;;7.06;68.73
49461;BME280;35355;49.198;-0.368;2023-03-05T00:27:15;101912.03;;;7.05;68.94
49461;BME280;35355;49.198;-0.368;2023-03-05T00:29:41;101922.91;;;7.05;68.48
49461;BME280;35355;49.198;-0.368;2023-03-05T00:32:06;101921.66;;;7.08;68.98
49461;BME280;35355;49.198;-0.368;2023-03-05T00:34:31;101913.31;;;7.09;68.46
49461;BME280;35355;49.198;-0.368;2023-03-05T00:36:57;101909.56;;;7.10;69.08
49461;BME280;35355;49.198;-0.368;2023-03-05T00:39:22;101910.38;;;7.11;68.64
49461;BME280;35355;49.198;-0.368;2023-03-05T00:41:48;101917.69;;;7.10;68.80
49461;BME280;35355;49.198;-0.368;2023-03-05T00:44:13;101908.69;;;7.10;68.87
49461;BME280;35355;49.198;-0.368;2023-03-05T00:46:39;101911.63;;;7.08;68.66
49461;BME280;35355;49.198;-0.368;2023-03-05T00:49:04;101903.28;;;7.10;68.56
49461;BME280;35355;49.198;-0.368;2023-03-05T00:51:30;101901.19;;;7.12;68.64
49461;BME280;35355;49.198;-0.368;2023-03-05T00:53:55;101892.41;;;7.10;68.86
49461;BME280;35355;49.198;-0.368;2023-03-05T00:56:21;101896.59;;;7.12;68.60
49461;BME280;35355;49.198;-0.368;2023-03-05T00:58:47;101889.47;;;7.11;68.83
49461;BME280;35355;49.198;-0.368;2023-03-05T01:01:13;101900.34;;;7.11;68.64
49461;BME280;35355;49.198;-0.368;2023-03-05T01:03:38;101886.16;;;7.09;68.49
49461;BME280;35355;49.198;-0.368;2023-03-05T01:06:06;101881.97;;;7.07;68.69
49461;BME280;35355;49.198;-0.368;2023-03-05T01:08:33;101882.19;;;7.05;69.08
49461;BME280;35355;49.198;-0.368;2023-03-05T01:10:58;101875.28;;;7.02;68.95
49461;BME280;35355;49.198;-0.368;2023-03-05T01:13:24;101880.50;;;7.04;69.37
49461;BME280;35355;49.198;-0.368;2023-03-05T01:15:49;101876.13;;;7.03;69.30
49461;BME280;35355;49.198;-0.368;2023-03-05T01:18:15;101873.44;;;7.03;69.16
49461;BME280;35355;49.198;-0.368;2023-03-05T01:20:41;101867.16;;;7.02;69.38
49461;BME280;35355;49.198;-0.368;2023-03-05T01:23:07;101863.81;;;7.00;69.17
49461;BME280;35355;49.198;-0.368;2023-03-05T01:25:32;101864.63;;;7.01;68.86
49461;BME280;35355;49.198;-0.368;2023-03-05T01:27:57;101866.75;;;6.99;69.60
49461;BME280;35355;49.198;-0.368;2023-03-05T01:30:23;101859.63;;;6.98;69.43
49461;BME280;35355;49.198;-0.368;2023-03-05T01:32:48;101846.28;;;6.96;68.79
49461;BME280;35355;49.198;-0.368;2023-03-05T01:35:19;101840.84;;;6.96;68.89
49461;BME280;35355;49.198;-0.368;2023-03-05T01:37:46;101840.03;;;6.96;69.50
49461;BME280;35355;49.198;-0.368;2023-03-05T01:40:14;101836.47;;;6.95;69.59
49461;BME280;35355;49.198;-0.368;2023-03-05T01:42:44;101832.50;;;6.98;69.66
49461;BME280;35355;49.198;-0.368;2023-03-05T01:45:14;101836.88;;;6.99;69.24
49461;BME280;35355;49.198;-0.368;2023-03-05T01:47:40;101825.59;;;7.02;69.51
49461;BME280;35355;49.198;-0.368;2023-03-05T01:50:08;101827.50;;;7.01;69.06
49461;BME280;35355;49.198;-0.368;2023-03-05T01:52:36;101827.28;;;7.03;68.74
49461;BME280;35355;49.198;-0.368;2023-03-05T01:55:05;101820.78;;;7.04;68.92
49461;BME280;35355;49.198;-0.368;2023-03-05T01:57:34;101820.56;;;7.06;69.00
49461;BME280;35355;49.198;-0.368;2023-03-05T02:00:08;101817.25;;;7.03;68.91
49461;BME280;35355;49.198;-0.368;2023-03-05T02:02:34;101814.31;;;7.05;68.45
49461;BME280;35355;49.198;-0.368;2023-03-05T02:05:06;101808.06;;;7.05;68.38
49461;BME280;35355;49.198;-0.368;2023-03-05T02:07:32;101818.06;;;7.04;68.31
49461;BME280;35355;49.198;-0.368;2023-03-05T02:10:12;101802.00;;;7.02;68.67
49461;BME280;35355;49.198;-0.368;2023-03-05T02:12:38;101804.91;;;7.01;69.11
49461;BME280;35355;49.198;-0.368;2023-03-05T02:15:04;101808.69;;;7.00;68.86
49461;BME280;35355;49.198;-0.368;2023-03-05T02:17:29;101798.66;;;7.00;69.20
49461;BME280;35355;49.198;-0.368;2023-03-05T02:20:02;101794.28;;;6.99;68.81
49461;BME280;35355;49.198;-0.368;2023-03-05T02:22:28;101786.34;;;6.98;68.78
49461;BME280;35355;49.198;-0.368;2023-03-05T02:24:54;101778.41;;;6.96;69.19
49461;BME280;35355;49.198;-0.368;2023-03-05T02:27:27;101775.09;;;6.94;68.82
49461;BME280;35355;49.198;-0.368;2023-03-05T02:29:59;101775.69;;;6.96;69.33
49461;BME280;35355;49.198;-0.368;2023-03-05T02:32:25;101764.22;;;6.94;69.44
49461;BME280;35355;49.198;-0.368;2023-03-05T02:34:51;101766.72;;;6.96;68.74
49461;BME280;35355;49.198;-0.368;2023-03-05T02:37:16;101763.19;;;6.95;68.66
49461;BME280;35355;49.198;-0.368;2023-03-05T02:39:41;101764.00;;;6.96;69.00
49461;BME280;35355;49.198;-0.368;2023-03-05T02:42:07;101757.78;;;6.95;69.38
49461;BME280;35355;49.198;-0.368;2023-03-05T02:44:32;101750.44;;;6.96;68.77
49461;BME280;35355;49.198;-0.368;2023-03-05T02:46:58;101737.47;;;6.98;69.62
49461;BME280;35355;49.198;-0.368;2023-03-05T02:49:23;101734.97;;;6.96;69.67
49461;BME280;35355;49.198;-0.368;2023-03-05T02:51:48;101737.69;;;6.96;68.96
49461;BME280;35355;49.198;-0.368;2023-03-05T02:54:14;101734.16;;;6.96;68.94
49461;BME280;35355;49.198;-0.368;2023-03-05T02:56:39;101731.44;;;6.96;69.41
49461;BME280;35355;49.198;-0.368;2023-03-05T02:59:05;101732.47;;;6.95;69.64
49461;BME280;35355;49.198;-0.368;2023-03-05T03:01:30;101732.47;;;6.95;69.36
49461;BME280;35355;49.198;-0.368;2023-03-05T03:03:55;101729.16;;;6.93;69.50
49461;BME280;35355;49.198;-0.368;2023-03-05T03:06:21;101723.72;;;6.93;69.33
49461;BME280;35355;49.198;-0.368;2023-03-05T03:08:46;101723.72;;;6.93;69.19
49461;BME280;35355;49.198;-0.368;2023-03-05T03:11:12;101717.06;;;6.89;69.42
49461;BME280;35355;49.198;-0.368;2023-03-05T03:13:38;101720.38;;;6.91;68.97
49461;BME280;35355;49.198;-0.368;2023-03-05T03:16:09;101722.06;;;6.92;69.42
49461;BME280;35355;49.198;-0.368;2023-03-05T03:18:35;101713.31;;;6.90;69.71
49461;BME280;35355;49.198;-0.368;2023-03-05T03:21:03;101709.94;;;6.88;69.33
49461;BME280;35355;49.198;-0.368;2023-03-05T03:23:29;101702.88;;;6.87;69.29
49461;BME280;35355;49.198;-0.368;2023-03-05T03:25:55;101701.19;;;6.85;70.05
49461;BME280;35355;49.198;-0.368;2023-03-05T03:28:20;101702.25;;;6.84;69.35
49461;BME280;35355;49.198;-0.368;2023-03-05T03:30:46;101694.94;;;6.85;69.88
49461;BME280;35355;49.198;-0.368;2023-03-05T03:33:11;101694.09;;;6.84;69.74
49461;BME280;35355;49.198;-0.368;2023-03-05T03:35:37;101690.34;;;6.85;69.59
49461;BME280;35355;49.198;-0.368;2023-03-05T03:38:02;101690.34;;;6.85;69.58
49461;BME280;35355;49.198;-0.368;2023-03-05T03:40:28;101689.53;;;6.85;69.63
49461;BME280;35355;49.198;-0.368;2023-03-05T03:42:53;101690.34;;;6.85;70.18
49461;BME280;35355;49.198;-0.368;2023-03-05T03:45:19;101684.91;;;6.85;69.60
49461;BME280;35355;49.198;-0.368;2023-03-05T03:47:50;101679.72;;;6.84;70.02
49461;BME280;35355;49.198;-0.368;2023-03-05T03:50:18;101681.56;;;6.83;69.82
49461;BME280;35355;49.198;-0.368;2023-03-05T03:52:46;101669.06;;;6.82;70.45
49461;BME280;35355;49.198;-0.368;2023-03-05T03:55:11;101670.72;;;6.83;69.60
49461;BME280;35355;49.198;-0.368;2023-03-05T03:57:36;101661.97;;;6.81;70.08
49461;BME280;35355;49.198;-0.368;2023-03-05T04:00:04;101664.69;;;6.81;69.98
49461;BME280;35355;49.198;-0.368;2023-03-05T04:02:32;101666.34;;;6.82;69.99
49461;BME280;35355;49.198;-0.368;2023-03-05T04:04:57;101668.22;;;6.82;70.36
49461;BME280;35355;49.198;-0.368;2023-03-05T04:07:23;101663.63;;;6.82;69.86
49461;BME280;35355;49.198;-0.368;2023-03-05T04:09:49;101672.00;;;6.81;70.45
49461;BME280;35355;49.198;-0.368;2023-03-05T04:12:14;101670.09;;;6.81;70.44
49461;BME280;35355;49.198;-0.368;2023-03-05T04:14:43;101664.69;;;6.81;70.24
49461;BME280;35355;49.198;-0.368;2023-03-05T04:17:10;101650.72;;;6.78;69.62
49461;BME280;35355;49.198;-0.368;2023-03-05T04:19:36;101664.28;;;6.78;69.83
49461;BME280;35355;49.198;-0.368;2023-03-05T04:22:01;101664.06;;;6.79;69.76
49461;BME280;35355;49.198;-0.368;2023-03-05T04:24:26;101663.22;;;6.79;69.70
49461;BME280;35355;49.198;-0.368;2023-03-05T04:26:52;101663.66;;;6.76;69.71
49461;BME280;35355;49.198;-0.368;2023-03-05T04:29:17;101660.09;;;6.75;70.46
49461;BME280;35355;49.198;-0.368;2023-03-05T04:31:43;101657.41;;;6.75;70.52
49461;BME280;35355;49.198;-0.368;2023-03-05T04:34:08;101655.13;;;6.72;70.11
49461;BME280;35355;49.198;-0.368;2023-03-05T04:36:34;101656.78;;;6.73;70.17
49461;BME280;35355;49.198;-0.368;2023-03-05T04:38:59;101648.84;;;6.72;70.83
49461;BME280;35355;49.198;-0.368;2023-03-05T04:41:25;101656.16;;;6.71;70.00
49461;BME280;35355;49.198;-0.368;2023-03-05T04:43:50;101645.28;;;6.71;70.41
49461;BME280;35355;49.198;-0.368;2023-03-05T04:46:16;101648.00;;;6.71;70.17
49461;BME280;35355;49.198;-0.368;2023-03-05T04:48:41;101646.34;;;6.70;70.37
49461;BME280;35355;49.198;-0.368;2023-03-05T04:51:06;101648.22;;;6.70;70.37
49461;BME280;35355;49.198;-0.368;2023-03-05T04:53:32;101640.09;;;6.70;70.21
49461;BME280;35355;49.198;-0.368;2023-03-05T04:55:57;101634.88;;;6.68;70.49
49461;BME280;35355;49.198;-0.368;2023-03-05T04:58:25;101635.69;;;6.68;70.08
49461;BME280;35355;49.198;-0.368;2023-03-05T05:00:51;101638.41;;;6.68;70.38
49461;BME280;35355;49.198;-0.368;2023-03-05T05:03:16;101636.56;;;6.69;70.30
49461;BME280;35355;49.198;-0.368;2023-03-05T05:05:42;101639.47;;;6.67;70.30
49461;BME280;35355;49.198;-0.368;2023-03-05T05:08:07;101634.69;;;6.63;70.14
49461;BME280;35355;49.198;-0.368;2023-03-05T05:10:32;101631.97;;;6.63;70.40
49461;BME280;35355;49.198;-0.368;2023-03-05T05:12:58;101628.63;;;6.61;70.40
49461;BME280;35355;49.198;-0.368;2023-03-05T05:15:23;101636.34;;;6.64;70.90
49461;BME280;35355;49.198;-0.368;2023-03-05T05:17:49;101627.16;;;6.65;70.83
49461;BME280;35355;49.198;-0.368;2023-03-05T05:20:15;101624.25;;;6.66;70.05
49461;BME280;35355;49.198;-0.368;2023-03-05T05:22:42;101626.13;;;6.66;70.52
49461;BME280;35355;49.198;-0.368;2023-03-05T05:25:08;101617.34;;;6.64;71.14
49461;BME280;35355;49.198;-0.368;2023-03-05T05:27:35;101617.34;;;6.64;70.66
49461;BME280;35355;49.198;-0.368;2023-03-05T05:30:01;101611.94;;;6.64;70.22
49461;BME280;35355;49.198;-0.368;2023-03-05T05:32:26;101615.72;;;6.63;70.79
49461;BME280;35355;49.198;-0.368;2023-03-05T05:34:53;101614.44;;;6.65;70.40
49461;BME280;35355;49.198;-0.368;2023-03-05T05:37:19;101620.72;;;6.66;70.16
49461;BME280;35355;49.198;-0.368;2023-03-05T05:39:45;101618.00;;;6.66;70.46
49461;BME280;35355;49.198;-0.368;2023-03-05T05:42:15;101613.38;;;6.66;70.80
49461;BME280;35355;49.198;-0.368;2023-03-05T05:44:40;101607.75;;;6.68;70.03
49461;BME280;35355;49.198;-0.368;2023-03-05T05:47:06;101612.13;;;6.69;70.22
49461;BME280;35355;49.198;-0.368;2023-03-05T05:49:31;101615.88;;;6.68;70.65
49461;BME280;35355;49.198;-0.368;2023-03-05T05:51:56;101615.88;;;6.68;70.77
49461;BME280;35355;49.198;-0.368;2023-03-05T05:54:23;101613.16;;;6.68;70.22
49461;BME280;35355;49.198;-0.368;2023-03-05T05:56:48;101617.78;;;6.67;70.14
49461;BME280;35355;49.198;-0.368;2023-03-05T05:59:13;101614.22;;;6.67;69.81
49461;BME280;35355;49.198;-0.368;2023-03-05T06:01:39;101614.22;;;6.67;70.51
49461;BME280;35355;49.198;-0.368;2023-03-05T06:04:04;101619.63;;;6.67;70.73
49461;BME280;35355;49.198;-0.368;2023-03-05T06:06:29;101613.38;;;6.66;70.39
49461;BME280;35355;49.198;-0.368;2023-03-05T06:08:55;101610.69;;;6.66;70.21
49461;BME280;35355;49.198;-0.368;2023-03-05T06:11:22;101614.00;;;6.68;70.41
49461;BME280;35355;49.198;-0.368;2023-03-05T06:13:48;101595.47;;;6.59;70.69
49461;BME280;35355;49.198;-0.368;2023-03-05T06:16:17;101605.03;;;6.68;70.68
49461;BME280;35355;49.198;-0.368;2023-03-05T06:18:43;101605.03;;;6.68;70.74
49461;BME280;35355;49.198;-0.368;2023-03-05T06:21:13;101602.75;;;6.65;70.56
49461;BME280;35355;49.198;-0.368;2023-03-05T06:23:40;101597.31;;;6.65;71.22
49461;BME280;35355;49.198;-0.368;2023-03-05T06:26:07;101601.94;;;6.64;71.05
49461;BME280;35355;49.198;-0.368;2023-03-05T06:28:32;101599.44;;;6.63;71.05
49461;BME280;35355;49.198;-0.368;2023-03-05T06:31:00;101596.91;;;6.61;71.03
49461;BME280;35355;49.198;-0.368;2023-03-05T06:33:25;101603.19;;;6.62;71.50
49461;BME280;35355;49.198;-0.368;2023-03-05T06:35:50;101595.47;;;6.59;71.01
49461;BME280;35355;49.198;-0.368;2023-03-05T06:38:16;101597.97;;;6.60;71.32
49461;BME280;35355;49.198;-0.368;2023-03-05T06:40:41;101596.31;;;6.59;70.84
49461;BME280;35355;49.198;-0.368;2023-03-05T06:43:06;101600.03;;;6.58;71.80
49461;BME280;35355;49.198;-0.368;2023-03-05T06:45:32;101592.75;;;6.59;72.09
49461;BME280;35355;49.198;-0.368;2023-03-05T06:47:57;101597.97;;;6.60;71.43
49461;BME280;35355;49.198;-0.368;2023-03-05T06:50:22;101599.63;;;6.61;71.34
49461;BME280;35355;49.198;-0.368;2023-03-05T06:52:49;101590.66;;;6.61;71.90
49461;BME280;35355;49.198;-0.368;2023-03-05T06:55:15;101597.75;;;6.62;72.23
49461;BME280;35355;49.198;-0.368;2023-03-05T06:57:40;101594.00;;;6.63;72.52
49461;BME280;35355;49.198;-0.368;2023-03-05T07:00:06;101599.22;;;6.64;72.22
49461;BME280;35355;49.198;-0.368;2023-03-05T07:02:35;101598.59;;;6.62;71.47
49461;BME280;35355;49.198;-0.368;2023-03-05T07:05:00;101595.66;;;6.64;71.29
49461;BME280;35355;49.198;-0.368;2023-03-05T07:07:26;101591.91;;;6.65;72.26
49461;BME280;35355;49.198;-0.368;2023-03-05T07:09:51;101587.09;;;6.67;71.47
49461;BME280;35355;49.198;-0.368;2023-03-05T07:12:17;101592.28;;;6.68;71.25
49461;BME280;35355;49.198;-0.368;2023-03-05T07:14:43;101590.44;;;6.69;72.17
49461;BME280;35355;49.198;-0.368;2023-03-05T07:17:08;101576.88;;;6.69;71.91
49461;BME280;35355;49.198;-0.368;2023-03-05T07:19:34;101587.28;;;6.72;71.66
49461;BME280;35355;49.198;-0.368;2023-03-05T07:21:59;101587.28;;;6.72;72.03
49461;BME280;35355;49.198;-0.368;2023-03-05T07:24:24;101582.91;;;6.71;71.79
49461;BME280;35355;49.198;-0.368;2023-03-05T07:26:55;101585.22;;;6.67;72.42
49461;BME280;35355;49.198;-0.368;2023-03-05T07:29:20;101586.03;;;6.68;71.48
49461;BME280;35355;49.198;-0.368;2023-03-05T07:31:47;101579.59;;;6.62;72.46
49461;BME280;35355;49.198;-0.368;2023-03-05T07:34:13;101584.59;;;6.65;71.89
49461;BME280;35355;49.198;-0.368;2023-03-05T07:36:38;101585.44;;;6.66;72.42
49461;BME280;35355;49.198;-0.368;2023-03-05T07:39:04;101583.31;;;6.68;71.98
49461;BME280;35355;49.198;-0.368;2023-03-05T07:41:30;101587.72;;;6.69;72.18
49461;BME280;35355;49.198;-0.368;2023-03-05T07:43:56;101576.66;;;6.71;72.12
49461;BME280;35355;49.198;-0.368;2023-03-05T07:46:27;101579.38;;;6.71;72.08
49461;BME280;35355;49.198;-0.368;2023-03-05T07:48:53;101577.25;;;6.73;72.17
49461;BME280;35355;49.198;-0.368;2023-03-05T07:51:19;101570.78;;;6.74;71.53
49461;BME280;35355;49.198;-0.368;2023-03-05T07:53:47;101571.00;;;6.72;71.75
49461;BME280;35355;49.198;-0.368;2023-03-05T07:56:13;101570.97;;;6.79;72.13
49461;BME280;35355;49.198;-0.368;2023-03-05T07:58:39;101580.56;;;6.81;71.47
49461;BME280;35355;49.198;-0.368;2023-03-05T08:01:10;101578.44;;;6.83;72.00
49461;BME280;35355;49.198;-0.368;2023-03-05T08:03:37;101575.34;;;6.87;72.04
49461;BME280;35355;49.198;-0.368;2023-03-05T08:06:04;101571.97;;;6.84;71.73
49461;BME280;35355;49.198;-0.368;2023-03-05T08:08:30;101581.38;;;6.89;71.65
49461;BME280;35355;49.198;-0.368;2023-03-05T08:10:55;101573.81;;;6.91;71.76
49461;BME280;35355;49.198;-0.368;2023-03-05T08:13:20;101565.47;;;6.92;71.42
49461;BME280;35355;49.198;-0.368;2023-03-05T08:15:46;101575.28;;;6.93;71.62
49461;BME280;35355;49.198;-0.368;2023-03-05T08:18:11;101570.88;;;6.92;71.83
49461;BME280;35355;49.198;-0.368;2023-03-05T08:20:38;101572.34;;;6.95;72.10
49461;BME280;35355;49.198;-0.368;2023-03-05T08:23:04;101569.63;;;6.95;71.53
49461;BME280;35355;49.198;-0.368;2023-03-05T08:25:29;101570.25;;;6.97;72.36
49461;BME280;35355;49.198;-0.368;2023-03-05T08:27:55;101574.63;;;6.98;71.91
49461;BME280;35355;49.198;-0.368;2023-03-05T08:30:21;101569.19;;;6.98;71.70
49461;BME280;35355;49.198;-0.368;2023-03-05T08:32:52;101562.50;;;7.00;72.03
49461;BME280;35355;49.198;-0.368;2023-03-05T08:35:17;101561.69;;;7.00;72.41
49461;BME280;35355;49.198;-0.368;2023-03-05T08:37:43;101557.91;;;7.01;72.12
49461;BME280;35355;49.198;-0.368;2023-03-05T08:40:09;101552.47;;;7.01;71.70
49461;BME280;35355;49.198;-0.368;2023-03-05T08:42:35;101552.03;;;7.04;72.04
49461;BME280;35355;49.198;-0.368;2023-03-05T08:45:00;101554.53;;;7.06;72.21
49461;BME280;35355;49.198;-0.368;2023-03-05T08:47:26;101549.94;;;7.06;72.12
49461;BME280;35355;49.198;-0.368;2023-03-05T08:49:52;101544.53;;;7.06;72.17
49461;BME280;35355;49.198;-0.368;2023-03-05T08:52:20;101548.47;;;7.10;72.27
49461;BME280;35355;49.198;-0.368;2023-03-05T08:54:46;101548.25;;;7.12;71.74
49461;BME280;35355;49.198;-0.368;2023-03-05T08:57:11;101552.59;;;7.13;72.25
49461;BME280;35355;49.198;-0.368;2023-03-05T08:59:37;101542.81;;;7.12;72.36
49461;BME280;35355;49.198;-0.368;2023-03-05T09:02:02;101548.84;;;7.14;72.12
49461;BME280;35355;49.198;-0.368;2023-03-05T09:04:27;101539.66;;;7.15;72.09
49461;BME280;35355;49.198;-0.368;2023-03-05T09:06:53;101541.94;;;7.18;72.14
49461;BME280;35355;49.198;-0.368;2023-03-05T09:09:18;101543.41;;;7.20;71.84
49461;BME280;35355;49.198;-0.368;2023-03-05T09:11:46;101535.84;;;7.23;72.47
49461;BME280;35355;49.198;-0.368;2023-03-05T09:14:11;101537.28;;;7.25;71.76
49461;BME280;35355;49.198;-0.368;2023-03-05T09:16:36;101541.44;;;7.28;72.56
49461;BME280;35355;49.198;-0.368;2023-03-05T09:19:04;101533.28;;;7.28;72.32
49461;BME280;35355;49.198;-0.368;2023-03-05T09:21:30;101530.56;;;7.28;71.79
49461;BME280;35355;49.198;-0.368;2023-03-05T09:23:55;101535.59;;;7.31;72.24
49461;BME280;35355;49.198;-0.368;2023-03-05T09:26:24;101532.44;;;7.34;72.45
49461;BME280;35355;49.198;-0.368;2023-03-05T09:28:49;101531.34;;;7.35;72.20
49461;BME280;35355;49.198;-0.368;2023-03-05T09:31:15;101523.84;;;7.37;71.71
49461;BME280;35355;49.198;-0.368;2023-03-05T09:33:40;101524.28;;;7.34;71.81
49461;BME280;35355;49.198;-0.368;2023-03-05T09:36:27;101534.47;;;7.38;71.99
49461;BME280;35355;49.198;-0.368;2023-03-05T09:38:53;101527.16;;;7.39;72.12
49461;BME280;35355;49.198;-0.368;2023-03-05T09:44:39;101525.47;;;7.38;72.07
49461;BME280;35355;49.198;-0.368;2023-03-05T09:50:14;101512.13;;;7.36;71.64
49461;BME280;35355;49.198;-0.368;2023-03-05T09:52:56;101511.69;;;7.40;71.01
49461;BME280;35355;49.198;-0.368;2023-03-05T09:55:42;101504.97;;;7.42;71.17
49461;BME280;35355;49.198;-0.368;2023-03-05T09:58:14;101502.03;;;7.44;71.41
49461;BME280;35355;49.198;-0.368;2023-03-05T10:00:43;101502.44;;;7.47;71.14
49461;BME280;35355;49.198;-0.368;2023-03-05T10:03:15;101500.31;;;7.49;71.30
49461;BME280;35355;49.198;-0.368;2023-03-05T10:08:15;101497.78;;;7.54;70.58
49461;BME280;35355;49.198;-0.368;2023-03-05T10:10:46;101497.78;;;7.54;70.77
49461;BME280;35355;49.198;-0.368;2023-03-05T10:13:24;101501.69;;;7.59;70.65
49461;BME280;35355;49.198;-0.368;2023-03-05T10:16:00;101489.78;;;7.60;70.27
49461;BME280;35355;49.198;-0.368;2023-03-05T10:21:20;101493.94;;;7.62;70.34
49461;BME280;35355;49.198;-0.368;2023-03-05T10:24:24;101484.75;;;7.63;70.14
49461;BME280;35355;49.198;-0.368;2023-03-05T10:27:01;101483.44;;;7.66;70.18
49461;BME280;35355;49.198;-0.368;2023-03-05T10:41:30;101469.22;;;7.89;70.00
49461;BME280;35355;49.198;-0.368;2023-03-05T10:44:04;101474.56;;;7.96;69.12
49461;BME280;35355;49.198;-0.368;2023-03-05T10:46:35;101469.28;;;8.01;69.51
49461;BME280;35355;49.198;-0.368;2023-03-05T10:49:11;101462.94;;;8.07;69.11
49461;BME280;35355;49.198;-0.368;2023-03-05T10:51:48;101455.53;;;8.14;69.02
49461;BME280;35355;49.198;-0.368;2023-03-05T10:54:54;101459.03;;;8.21;69.06
49461;BME280;35355;49.198;-0.368;2023-03-05T10:57:19;101452.66;;;8.28;68.87
49461;BME280;35355;49.198;-0.368;2023-03-05T11:02:25;101442.06;;;8.38;68.47
49461;BME280;35355;49.198;-0.368;2023-03-05T11:04:51;101450.63;;;8.41;68.27
49461;BME280;35355;49.198;-0.368;2023-03-05T11:12:37;101427.72;;;8.49;68.70
49461;BME280;35355;49.198;-0.368;2023-03-05T11:17:39;101428.00;;;8.59;68.32
49461;BME280;35355;49.198;-0.368;2023-03-05T11:20:33;101433.78;;;8.63;68.43
49461;BME280;35355;49.198;-0.368;2023-03-05T11:25:33;101425.31;;;8.71;67.67
49461;BME280;35355;49.198;-0.368;2023-03-05T11:28:01;101414.44;;;8.71;67.73
49461;BME280;35355;49.198;-0.368;2023-03-05T11:30:36;101406.25;;;8.71;67.67
49461;BME280;35355;49.198;-0.368;2023-03-05T11:33:14;101414.31;;;8.78;67.88
49461;BME280;35355;49.198;-0.368;2023-03-05T11:35:42;101412.19;;;8.80;67.20
49461;BME280;35355;49.198;-0.368;2023-03-05T11:38:20;101406.75;;;8.80;67.78
49461;BME280;35355;49.198;-0.368;2023-03-05T11:40:47;101401.31;;;8.80;67.23
49461;BME280;35355;49.198;-0.368;2023-03-05T11:43:16;101410.53;;;8.79;67.10
49461;BME280;35355;49.198;-0.368;2023-03-05T11:45:42;101397.63;;;8.74;66.77
49461;BME280;35355;49.198;-0.368;2023-03-05T11:48:15;101389.69;;;8.73;67.05
49461;BME280;35355;49.198;-0.368;2023-03-05T11:50:44;101385.53;;;8.70;66.69
49461;BME280;35355;49.198;-0.368;2023-03-05T11:53:13;101391.34;;;8.74;66.67
49461;BME280;35355;49.198;-0.368;2023-03-05T11:55:50;101383.31;;;8.79;66.83
49461;BME280;35355;49.198;-0.368;2023-03-05T11:58:27;101376.81;;;8.80;66.68
49461;BME280;35355;49.198;-0.368;2023-03-05T12:00:55;101371.00;;;8.88;66.25
49461;BME280;35355;49.198;-0.368;2023-03-05T12:03:35;101371.16;;;8.93;66.66
49461;BME280;35355;49.198;-0.368;2023-03-05T12:08:40;101359.06;;;9.01;65.87
49461;BME280;35355;49.198;-0.368;2023-03-05T12:11:19;101359.41;;;9.05;65.88
49461;BME280;35355;49.198;-0.368;2023-03-05T12:13:49;101352.69;;;9.07;65.13
49461;BME280;35355;49.198;-0.368;2023-03-05T12:16:25;101343.78;;;9.12;65.36
49461;BME280;35355;49.198;-0.368;2023-03-05T12:19:29;101338.97;;;9.14;64.91
49461;BME280;35355;49.198;-0.368;2023-03-05T12:21:51;101332.41;;;9.15;65.00
49461;BME280;35355;49.198;-0.368;2023-03-05T12:31:59;101309.47;;;9.23;64.40
49461;BME280;35355;49.198;-0.368;2023-03-05T12:47:34;101273.50;;;9.50;63.77
49461;BME280;35355;49.198;-0.368;2023-03-05T12:50:00;101268.28;;;9.60;64.41
49461;BME280;35355;49.198;-0.368;2023-03-05T12:52:28;101275.56;;;9.71;65.41
49461;BME280;35355;49.198;-0.368;2023-03-05T12:57:48;101256.72;;;9.98;66.44
49461;BME280;35355;49.198;-0.368;2023-03-05T13:00:26;101251.44;;;10.09;66.70
49461;BME280;35355;49.198;-0.368;2023-03-05T13:02:59;101255.66;;;10.16;66.96
49461;BME280;35355;49.198;-0.368;2023-03-05T13:05:32;101248.72;;;10.26;67.71
49461;BME280;35355;49.198;-0.368;2023-03-05T13:10:41;101239.38;;;10.33;67.01
49461;BME280;35355;49.198;-0.368;2023-03-05T13:13:13;101242.78;;;10.29;66.73
49461;BME280;35355;49.198;-0.368;2023-03-05T13:15:44;101237.25;;;10.24;67.04
49461;BME280;35355;49.198;-0.368;2023-03-05T13:18:28;101223.59;;;10.24;67.03
49461;BME280;35355;49.198;-0.368;2023-03-05T13:21:45;101228.25;;;10.23;66.68
49461;BME280;35355;49.198;-0.368;2023-03-05T13:23:53;101222.28;;;10.26;67.56
49461;BME280;35355;49.198;-0.368;2023-03-05T13:26:39;101217.41;;;10.28;67.89
49461;BME280;35355;49.198;-0.368;2023-03-05T13:31:30;101209.56;;;10.32;68.35
49461;BME280;35355;49.198;-0.368;2023-03-05T13:33:58;101194.00;;;10.32;67.99
49461;BME280;35355;49.198;-0.368;2023-03-05T13:36:31;101188.56;;;10.32;68.84
49461;BME280;35355;49.198;-0.368;2023-03-05T13:38:57;101182.06;;;10.33;68.82
49461;BME280;35355;49.198;-0.368;2023-03-05T13:41:26;101179.66;;;10.37;68.67
49461;BME280;35355;49.198;-0.368;2023-03-05T13:43:57;101182.94;;;10.39;68.48
49461;BME280;35355;49.198;-0.368;2023-03-05T13:46:28;101183.78;;;10.40;68.20
49461;BME280;35355;49.198;-0.368;2023-03-05T13:48:55;101175.09;;;10.43;68.80
49461;BME280;35355;49.198;-0.368;2023-03-05T13:51:21;101172.94;;;10.45;68.54
49461;BME280;35355;49.198;-0.368;2023-03-05T13:53:47;101166.72;;;10.49;67.99
49461;BME280;35355;49.198;-0.368;2023-03-05T13:56:20;101164.84;;;10.50;67.58
49461;BME280;35355;49.198;-0.368;2023-03-05T13:58:53;101176.81;;;10.49;67.39
49461;BME280;35355;49.198;-0.368;2023-03-05T14:01:29;101170.84;;;10.52;67.29